San Miguel, California
Current Conditions -  °F | °C
As of 9:53 AM on Friday 28 Nov 2014 (Local Time) from KPRB Reporting Station
Clear Clear  
Wind Chill: 50°   Ceiling: Unl
Heat Index: 50°   Visibility: 10mi
Dew Point: 35°   Wind: 3mph
Humidity: 57%   Direction: 230°SW
Pressure: 30.04"   Gusts: NA
Location:  35.75°N, 120.7°W
Report Text: KPRB 281753Z AUTO 23003KT 10SM CLR 10/02 A3004 RMK AO2 SLP173 T01000017 10100 20011 50000 TSNO
Loading
Personal Weather Stations






























Interactive Weather Map New forecast layout! Learn more

10-Day Weather Forecast

Advertisements
Track Severe Weather on mobile